Stations météo

réclame
Mon MeteoGroup
Arcen aws, Pays-Bas (6391): Température de l'air & dewpoint: 17.10.2018 12:00:00 - 23.10.2018 12:00:00 (CEST)Arcen aws, Pays-Bas (6391): Température de l'air 5cm: 17.10.2018 12:00:00 - 23.10.2018 12:00:00 (CEST)Arcen aws, Pays-Bas (6391): Vitesse du vent & gusts: 17.10.2018 12:00:00 - 23.10.2018 12:00:00 (CEST)Arcen aws, Pays-Bas (6391): Direction du vent: 17.10.2018 12:00:00 - 23.10.2018 12:00:00 (CEST)Arcen aws, Pays-Bas (6391): Quantités de précipitations: 17.10.2018 12:00:00 - 23.10.2018 12:00:00 (CEST)
Date & Time tt [°C] td [°C] tt 5cm [°C] ff [km/h] ff [knt] fx [km/h] fx [knt] dd rr [mm]
23.10.2018 12:00:00 11,5 7,4 11,8 17 9 - - WSW -
23.10.2018 11:00:00 10,4 6,9 10,3 14 8 32 18 WSW 0,0
23.10.2018 10:00:00 9,6 6,5 9,4 14 8 25 14 WSW 0,0
23.10.2018 09:00:00 8,8 5,7 8,6 14 8 40 21 WSW 0,0
23.10.2018 08:00:00 8,3 5,1 7,9 14 8 29 16 WSW 0,0
23.10.2018 07:00:00 7,5 4,7 6,8 14 8 29 16 WSW 0,0
23.10.2018 06:00:00 6,8 4,2 6,0 11 6 25 14 WSW 0,0
23.10.2018 05:00:00 6,1 3,8 4,8 11 6 18 10 WSW 0,0
23.10.2018 04:00:00 5,1 3,2 3,6 11 6 14 8 SW 0,0
23.10.2018 03:00:00 3,9 3,2 1,9 7 4 14 8 SW 0,0
23.10.2018 02:00:00 3,3 3,1 1,0 4 2 7 4 WSW 0,0
23.10.2018 01:00:00 3,2 2,9 0,8 4 2 7 4 SW 0,0
23.10.2018 00:00:00 3,1 2,4 1,2 0 0 4 2 N 0,0
22.10.2018 23:00:00 4,4 3,6 2,2 0 0 4 2 N 0,0
22.10.2018 22:00:00 6,5 4,5 4,3 4 2 7 4 W 0,0
22.10.2018 21:00:00 9,8 4,7 8,7 7 4 14 8 N 0,0
22.10.2018 20:00:00 9,6 5,1 7,8 4 2 11 6 NNW 0,0
22.10.2018 19:00:00 9,8 6,0 8,5 4 2 11 6 N 0,0
22.10.2018 18:00:00 12,7 5,3 11,6 4 2 29 16 N 0,0
22.10.2018 17:00:00 15,2 5,3 14,9 7 4 22 12 NNW 0,0
22.10.2018 16:00:00 14,5 5,4 14,4 18 10 29 16 N 0,0
22.10.2018 15:00:00 16,0 5,0 17,3 11 6 25 14 N 0,0
22.10.2018 14:00:00 14,7 6,6 14,9 14 8 32 18 N 0,0
22.10.2018 13:00:00 14,6 8,0 14,0 14 8 32 18 N 0,0
22.10.2018 12:00:00 14,7 9,0 14,4 14 8 29 16 NNE 0,0
22.10.2018 11:00:00 12,7 10,5 12,8 11 6 25 14 N 0,0
22.10.2018 10:00:00 11,9 10,5 11,7 14 8 32 18 N 0,0
22.10.2018 09:00:00 11,9 10,7 11,7 25 14 40 21 N 0,2
22.10.2018 08:00:00 11,3 9,5 10,7 4 2 7 4 NNW 0,0
22.10.2018 07:00:00 9,8 8,4 9,3 0 0 4 2 N 0,0
22.10.2018 06:00:00 10,1 8,4 9,8 4 2 4 2 SW 0,0
22.10.2018 05:00:00 10,2 8,3 10,0 4 2 7 4 SW 0,0
22.10.2018 04:00:00 9,8 8,2 9,1 4 2 7 4 S 0,0
22.10.2018 03:00:00 9,3 8,4 8,6 0 0 4 2 N 0,0
22.10.2018 02:00:00 9,7 8,2 8,9 4 2 4 2 S 0,0
22.10.2018 01:00:00 10,2 8,2 10,0 0 0 11 6 N 0,0
22.10.2018 00:00:00 9,9 7,9 9,1 4 2 4 2 SE 0,0
21.10.2018 23:00:00 8,4 7,4 7,6 4 2 4 2 S 0,0
21.10.2018 22:00:00 6,6 5,8 4,8 0 0 4 2 N 0,0
21.10.2018 21:00:00 7,2 6,0 5,3 4 2 4 2 NE 0,0
21.10.2018 20:00:00 8,3 6,6 6,3 4 2 4 2 E 0,0
21.10.2018 19:00:00 10,4 6,9 8,1 4 2 4 2 NNW 0,0
21.10.2018 18:00:00 13,3 7,6 11,1 4 2 7 4 S 0,0
21.10.2018 17:00:00 15,7 5,6 14,6 4 2 14 8 SSE 0,0
21.10.2018 16:00:00 15,8 5,7 15,0 11 6 18 10 SSE 0,0
21.10.2018 15:00:00 16,3 6,1 16,3 7 4 14 8 S 0,0
21.10.2018 14:00:00 14,9 6,1 14,1 7 4 18 10 S 0,0
21.10.2018 13:00:00 14,0 6,3 13,4 11 6 18 10 SE 0,0
21.10.2018 12:00:00 13,5 6,3 13,1 4 2 11 6 S 0,0
21.10.2018 11:00:00 12,0 6,5 12,6 4 2 11 6 SSE 0,0
21.10.2018 10:00:00 8,3 6,8 7,9 4 2 7 4 S 0,0
21.10.2018 09:00:00 5,5 5,1 4,1 4 2 4 2 ENE 0,0
21.10.2018 08:00:00 6,0 5,3 5,5 4 2 4 2 SSE 0,0
21.10.2018 07:00:00 5,0 4,9 4,0 4 2 4 2 S 0,0
21.10.2018 06:00:00 5,7 5,2 5,0 0 0 4 2 N 0,0
21.10.2018 05:00:00 5,7 5,6 5,4 4 2 7 4 S 0,0
21.10.2018 04:00:00 5,5 5,2 4,6 4 2 11 6 S 0,0
21.10.2018 03:00:00 2,6 2,2 1,4 0 0 4 2 N 0,0
21.10.2018 02:00:00 2,9 2,1 1,3 0 0 4 2 N 0,0
21.10.2018 01:00:00 3,1 2,7 1,6 0 0 4 2 N 0,0
21.10.2018 00:00:00 3,6 2,7 2,0 0 0 4 2 N 0,0
20.10.2018 23:00:00 4,3 3,7 2,4 4 2 4 2 S 0,0
20.10.2018 22:00:00 5,3 5,2 3,5 4 2 7 4 N 0,0
20.10.2018 21:00:00 6,3 5,7 4,4 0 0 4 2 N 0,0
20.10.2018 20:00:00 7,5 6,6 5,2 4 2 4 2 S 0,0
20.10.2018 19:00:00 9,6 7,1 7,6 4 2 4 2 E 0,0
20.10.2018 18:00:00 13,5 6,6 11,8 4 2 14 8 N 0,0
20.10.2018 17:00:00 14,9 5,9 15,0 7 4 14 8 N 0,0
20.10.2018 16:00:00 15,0 5,9 15,1 0 0 11 6 N 0,0
20.10.2018 15:00:00 15,0 5,6 15,8 4 2 14 8 WSW 0,0
20.10.2018 14:00:00 14,9 5,9 14,7 4 2 11 6 NNE 0,0
20.10.2018 13:00:00 14,2 6,4 13,6 4 2 7 4 W 0,0
20.10.2018 12:00:00 12,1 6,8 11,8 0 0 4 2 N 0,0
20.10.2018 11:00:00 8,7 7,7 8,9 0 0 4 2 N 0,0
20.10.2018 10:00:00 5,9 5,7 5,7 0 0 4 2 N 0,0
20.10.2018 09:00:00 2,2 2,2 1,6 0 0 4 2 N 0,0
20.10.2018 08:00:00 1,1 0,9 0,1 4 2 4 2 NW 0,0
20.10.2018 07:00:00 1,4 1,1 0,6 4 2 4 2 NW 0,0
20.10.2018 06:00:00 1,5 1,1 0,2 4 2 7 4 NNW 0,0
20.10.2018 05:00:00 2,2 1,6 0,7 0 0 4 2 N 0,0
20.10.2018 04:00:00 3,0 2,9 1,7 4 2 7 4 NNE 0,0
20.10.2018 03:00:00 3,0 2,9 1,6 4 2 11 6 N 0,0
20.10.2018 02:00:00 3,5 3,0 1,9 0 0 7 4 N 0,0
20.10.2018 01:00:00 4,4 4,3 2,9 4 2 7 4 N 0,0
20.10.2018 00:00:00 4,7 4,3 2,6 4 2 7 4 NNW 0,0
19.10.2018 23:00:00 5,3 4,7 3,6 4 2 7 4 N 0,0
19.10.2018 22:00:00 6,1 5,5 4,3 4 2 7 4 N 0,0
19.10.2018 21:00:00 7,2 6,4 5,4 0 0 7 4 N 0,0
19.10.2018 20:00:00 8,5 7,4 6,6 4 2 7 4 N 0,0
19.10.2018 19:00:00 10,9 8,6 9,0 4 2 7 4 N 0,0
19.10.2018 18:00:00 14,3 8,7 13,2 7 4 14 8 N 0,0
19.10.2018 17:00:00 16,1 8,9 16,3 7 4 11 6 NE 0,0
19.10.2018 16:00:00 16,9 8,3 16,6 7 4 18 10 NE 0,0
19.10.2018 15:00:00 15,9 9,1 17,1 7 4 14 8 E 0,0
19.10.2018 14:00:00 15,5 9,3 14,9 11 6 18 10 E 0,0
19.10.2018 13:00:00 14,2 9,1 14,7 7 4 18 10 ENE 0,0
19.10.2018 12:00:00 13,4 9,1 13,9 11 6 22 12 E 0,0
19.10.2018 11:00:00 11,6 8,8 11,8 14 8 18 10 ENE 0,0
19.10.2018 10:00:00 10,3 7,8 10,3 7 4 14 8 NE 0,0
19.10.2018 09:00:00 8,9 7,4 8,7 7 4 11 6 NE 0,0
19.10.2018 08:00:00 8,7 7,2 8,3 7 4 7 4 NNE 0,0
19.10.2018 07:00:00 8,8 7,1 8,4 7 4 11 6 NNE 0,0
19.10.2018 06:00:00 8,9 7,1 8,7 7 4 18 10 NNE 0,0
19.10.2018 05:00:00 9,1 7,2 8,8 11 6 18 10 NNE 0,0
19.10.2018 04:00:00 9,6 7,5 9,3 11 6 22 12 NE 0,0
19.10.2018 03:00:00 9,9 7,6 9,7 11 6 22 12 NNE 0,0
19.10.2018 02:00:00 10,4 7,6 10,1 11 6 18 10 NNE 0,0
19.10.2018 01:00:00 11,3 7,8 11,0 14 8 22 12 NNE 0,0
19.10.2018 00:00:00 12,5 8,1 12,1 11 6 22 12 NNE 0,0
18.10.2018 23:00:00 13,2 8,6 12,7 14 8 22 12 NE 0,0
18.10.2018 22:00:00 13,6 9,7 13,3 14 8 18 10 NNE 0,0
18.10.2018 21:00:00 13,6 10,3 13,2 7 4 14 8 NNE 0,0
18.10.2018 20:00:00 13,6 11,8 13,2 4 2 7 4 N 0,0
18.10.2018 19:00:00 13,7 12,6 13,4 0 0 7 4 N 0,0
18.10.2018 18:00:00 14,1 12,4 14,0 4 2 11 6 N 0,0
18.10.2018 17:00:00 14,0 12,6 14,2 7 4 22 12 N 0,0
18.10.2018 16:00:00 14,7 12,2 15,0 11 6 18 10 NNE 0,0
18.10.2018 15:00:00 14,8 12,2 14,9 11 6 22 12 N 0,0
18.10.2018 14:00:00 15,0 12,3 15,7 14 8 22 12 N 0,0
18.10.2018 13:00:00 14,5 13,0 15,1 11 6 25 14 N 0,0
18.10.2018 12:00:00 14,6 11,8 15,4 14 8 22 12 N 0,0
18.10.2018 11:00:00 13,1 11,4 13,5 11 6 18 10 N 0,0
18.10.2018 10:00:00 12,9 11,3 12,4 7 4 11 6 N 0,0
18.10.2018 09:00:00 10,2 9,7 9,2 7 4 7 4 N 0,0
18.10.2018 08:00:00 9,9 9,4 8,4 4 2 7 4 NNW 0,0
18.10.2018 07:00:00 12,0 10,5 11,0 7 4 14 8 N 0,0
18.10.2018 06:00:00 13,9 11,3 13,6 7 4 14 8 N 0,0
18.10.2018 05:00:00 14,2 11,6 13,9 7 4 14 8 N 0,0
18.10.2018 04:00:00 14,2 11,8 13,9 7 4 11 6 N 0,0
18.10.2018 03:00:00 14,2 12,0 13,8 7 4 11 6 N 0,0
18.10.2018 02:00:00 13,9 12,0 13,5 7 4 11 6 N 0,0
18.10.2018 01:00:00 13,6 12,0 13,0 7 4 11 6 N 0,0
18.10.2018 00:00:00 12,6 11,7 11,6 7 4 7 4 N 0,0
17.10.2018 23:00:00 13,5 12,0 12,5 7 4 11 6 N 0,0
17.10.2018 22:00:00 13,7 12,0 12,3 7 4 7 4 NNW 0,0
17.10.2018 21:00:00 13,8 12,1 11,8 4 2 7 4 NNW 0,0
17.10.2018 20:00:00 13,7 12,0 11,2 4 2 7 4 NNW 0,0
17.10.2018 19:00:00 16,0 13,1 14,3 4 2 14 8 N 0,0
17.10.2018 18:00:00 19,0 13,7 18,0 4 2 18 10 NW 0,0
17.10.2018 17:00:00 21,0 13,6 20,3 4 2 11 6 W 0,0
17.10.2018 16:00:00 21,9 12,8 20,7 4 2 7 4 W 0,0
17.10.2018 15:00:00 21,7 12,9 22,6 4 2 7 4 WSW 0,0
17.10.2018 14:00:00 20,1 12,7 19,6 4 2 7 4 SW 0,0
17.10.2018 13:00:00 19,0 12,9 19,1 4 2 7 4 W 0,0
17.10.2018 12:00:00 17,3 12,4 18,2 4 2 7 4 WSW 0,0

tt = Température de l'air
td = dewpoint
tt 5cm = Température de l'air 5cm
ff = Vitesse du vent
fx = gusts
dd = Direction du vent
rr = Quantités de précipitations

stations d'obs. à proximité